Time;durP1;ratioP1;P1;durP2;ratioP2;P2;SDS_P1;SDS_P2;PMS_P1;PMS_P2;Temp;Humidity;BMP_temperature;BMP_pressure;BME280_temperature;BME280_humidity;BME280_pressure;Samples;Min_cycle;Max_cycle;Signal;HPM_P1;HPM_P2
2021/01/05 00:00:25;;;;;;;0.70;0.70;;;2.40;99.90;;;3.02;100.00;64243.00;5012727;28;20211;-66
2021/01/05 00:02:52;;;;;;;0.60;0.50;;;2.40;99.90;;;2.97;100.00;63913.03;4997754;28;20245;-66
2021/01/05 00:05:19;;;;;;;1.33;1.25;;;2.40;99.90;;;3.11;100.00;64253.25;5031323;28;20190;-65
2021/01/05 00:07:48;;;;;;;0.60;0.52;;;2.40;99.90;;;3.14;100.00;63606.81;4995082;28;20212;-64
2021/01/05 00:10:15;;;;;;;0.60;0.60;;;2.40;99.90;;;3.19;100.00;63286.97;5007021;28;20596;-66
2021/01/05 00:12:43;;;;;;;0.70;0.60;;;2.40;99.90;;;3.12;100.00;62630.56;5014130;28;20191;-64
2021/01/05 00:15:12;;;;;;;0.60;0.60;;;2.50;99.90;;;3.08;100.00;62301.34;5022345;28;20269;-64
2021/01/05 00:17:39;;;;;;;0.60;0.60;;;2.40;99.90;;;3.12;100.00;62305.22;4997814;28;20179;-64
2021/01/05 00:20:12;;;;;;;0.70;0.60;;;2.40;99.90;;;3.08;100.00;61976.63;5043844;28;20269;-64
2021/01/05 00:22:40;;;;;;;0.60;0.60;;;2.40;99.90;;;3.06;100.00;61649.19;4994472;28;20629;-65
2021/01/05 00:25:12;;;;;;;0.70;0.60;;;2.40;99.90;;;3.05;100.00;61648.09;4994499;28;20180;-65
2021/01/05 00:27:40;;;;;;;0.68;0.60;;;2.40;99.90;;;3.20;100.00;62314.06;4994236;28;20200;-65
2021/01/05 00:30:12;;;;;;;0.70;0.60;;;2.40;99.90;;;3.04;100.00;61322.34;4998339;28;20222;-65
2021/01/05 00:32:43;;;;;;;0.60;0.60;;;2.40;99.90;;;3.02;100.00;61320.16;5017799;28;20190;-65
2021/01/05 00:35:12;;;;;;;0.60;0.60;;;2.40;99.90;;;3.06;100.00;61649.19;5014406;28;20195;-64
2021/01/05 00:37:42;;;;;;;0.60;0.50;;;2.40;99.90;;;2.95;100.00;61312.56;4997252;28;20176;-65
2021/01/05 00:40:11;;;;;;;0.70;0.50;;;2.40;99.90;;;2.86;100.00;61303.84;5012082;28;20226;-65
2021/01/05 00:42:38;;;;;;;0.65;0.60;;;2.40;99.90;;;2.93;100.00;61959.59;5013167;28;20190;-65
2021/01/05 00:45:07;;;;;;;0.63;0.55;;;2.40;99.90;;;2.96;100.00;62287.56;5011123;28;20222;-64
2021/01/05 00:47:34;;;;;;;0.70;0.60;;;2.40;99.90;;;3.04;100.00;62621.13;4993977;28;20195;-63
2021/01/05 00:50:03;;;;;;;0.60;0.60;;;2.40;99.90;;;2.97;100.00;62288.66;5004982;28;20636;-64
2021/01/05 00:52:30;;;;;;;0.70;0.60;;;2.40;99.90;;;3.00;100.00;62291.97;5028394;28;20630;-64
2021/01/05 00:54:57;;;;;;;0.60;0.60;;;2.40;99.90;;;3.01;100.00;62617.78;5010806;28;20218;-64
2021/01/05 00:57:25;;;;;;;0.70;0.60;;;2.40;99.90;;;2.96;100.00;62288.09;5012151;28;20687;-65
2021/01/05 00:59:52;;;;;;;0.68;0.60;;;2.40;99.90;;;3.05;100.00;62622.22;5027688;28;20242;-65
2021/01/05 01:02:19;;;;;;;0.63;0.60;;;2.40;99.90;;;2.99;100.00;62290.88;5012935;28;20217;-64
2021/01/05 01:04:48;;;;;;;0.60;0.50;;;2.30;99.90;;;3.00;100.00;62292.50;5028300;28;20246;-65
2021/01/05 01:07:15;;;;;;;0.63;0.60;;;2.30;99.90;;;3.01;100.00;62293.06;5029179;28;20195;-64
2021/01/05 01:09:44;;;;;;;0.60;0.50;;;2.40;99.90;;;2.90;100.00;61632.22;5028790;28;20199;-65
2021/01/05 01:12:20;;;;;;;0.60;0.50;;;2.30;99.90;;;2.87;100.00;62278.72;5011093;28;20199;-64
2021/01/05 01:14:55;;;;;;;0.80;0.80;;;2.30;99.90;;;2.86;100.00;62277.03;5024792;28;20218;-64
2021/01/05 01:17:26;;;;;;;0.60;0.60;;;2.30;99.90;;;2.85;100.00;62276.50;5026284;28;20189;-64
2021/01/05 01:19:56;;;;;;;0.60;0.60;;;2.30;99.90;;;2.84;100.00;62600.03;5027916;28;20215;-64
2021/01/05 01:22:25;;;;;;;0.60;0.50;;;2.30;99.90;;;2.99;100.00;63589.91;4996146;28;20198;-65
2021/01/05 01:25:05;;;;;;;0.70;0.60;;;2.40;99.90;;;3.08;100.00;63275.19;5004648;28;20191;-65
2021/01/05 01:27:37;;;;;;;0.80;0.80;;;2.40;99.90;;;2.99;100.00;62291.41;5012838;28;20202;-65
2021/01/05 01:30:09;;;;;;;0.60;0.60;;;2.40;99.90;;;2.95;100.00;61961.78;5026722;28;20599;-67
2021/01/05 01:32:49;;;;;;;1.52;1.40;;;2.30;99.90;;;2.99;100.00;61966.72;5011566;28;20576;-64
2021/01/05 01:35:17;;;;;;;0.60;0.50;;;2.40;99.90;;;2.94;100.00;61961.22;5030032;28;20222;-64
2021/01/05 01:37:47;;;;;;;0.70;0.60;;;2.30;99.90;;;2.97;100.00;61639.34;5011780;28;20190;-65
2021/01/05 01:40:27;;;;;;;0.65;0.60;;;2.30;99.90;;;2.89;100.00;61306.56;5026920;28;20651;-64
2021/01/05 01:42:54;;;;;;;0.60;0.60;;;2.30;99.90;;;2.93;100.00;61310.38;5026727;28;20218;-64
2021/01/05 01:45:24;;;;;;;0.68;0.60;;;2.30;99.90;;;2.90;100.00;61307.66;5025143;28;20246;-64
2021/01/05 01:47:55;;;;;;;0.60;0.60;;;2.30;99.90;;;2.83;100.00;60976.06;5025391;28;20215;-64
2021/01/05 01:50:28;;;;;;;0.60;0.50;;;2.30;99.90;;;2.92;100.00;61309.31;5019113;28;20216;-65
2021/01/05 01:53:44;;;;;;;0.60;0.50;;;2.30;99.90;;;2.94;100.00;61311.47;4998376;28;20212;-65
2021/01/05 01:56:40;;;;;;;0.60;0.60;;;2.40;99.90;;;3.03;100.00;61646.47;5011011;28;20205;-64
2021/01/05 01:59:36;;;;;;;0.70;0.60;;;2.40;99.90;;;2.97;100.00;60990.16;5011732;28;20321;-64
2021/01/05 02:02:20;;;;;;;0.70;0.60;;;2.40;99.90;;;2.99;100.00;60667.78;5011831;28;20663;-65
2021/01/05 02:05:07;;;;;;;0.60;0.50;;;2.40;99.90;;;2.88;100.00;60332.53;5024139;28;20206;-64
2021/01/05 02:08:13;;;;;;;0.60;0.50;;;2.30;99.90;;;2.88;100.00;60332.53;5011705;28;20289;-64
2021/01/05 02:10:54;;;;;;;0.60;0.50;;;2.30;99.90;;;2.88;100.00;60332.53;5008396;28;20196;-66
2021/01/05 02:14:05;;;;;;;0.70;0.60;;;2.30;99.90;;;2.98;100.00;60666.69;5035345;28;20221;-66
2021/01/05 02:16:46;;;;;;;0.60;0.50;;;2.30;99.90;;;2.96;100.00;60340.03;5009316;28;20187;-65
2021/01/05 02:19:30;;;;;;;0.60;0.60;;;2.30;99.90;;;3.06;100.00;60350.75;5031232;28;20244;-64
2021/01/05 02:22:10;;;;;;;0.63;0.60;;;2.40;99.90;;;3.10;100.00;59705.97;5011410;28;20195;-64
2021/01/05 02:24:50;;;;;;;0.70;0.60;;;2.40;99.90;;;3.04;100.00;58726.31;5003330;28;20245;-65
2021/01/05 02:27:18;;;;;;;0.70;0.60;;;2.40;99.90;;;2.98;100.00;58720.56;5005604;28;20702;-64
2021/01/05 02:29:53;;;;;;;0.80;0.80;;;2.40;99.90;;;2.93;100.00;58390.50;5011377;28;20533;-65
2021/01/05 02:32:40;;;;;;;0.70;0.60;;;2.30;99.90;;;3.02;100.00;58724.22;5011791;28;20202;-64
2021/01/05 02:35:34;;;;;;;0.60;0.50;;;2.30;99.90;;;3.05;100.00;58402.97;5016806;28;20195;-64
2021/01/05 02:39:03;;;;;;;0.70;0.60;;;2.40;99.90;;;3.02;100.00;57751.22;5015681;28;20189;-64
2021/01/05 02:42:08;;;;;;;0.70;0.60;;;2.40;99.90;;;3.11;100.00;58084.84;5015105;28;20267;-64
2021/01/05 02:45:06;;;;;;;0.82;0.82;;;2.40;99.90;;;3.01;100.00;57750.22;5015819;28;20246;-64
2021/01/05 02:48:18;;;;;;;0.65;0.63;;;2.40;99.90;;;3.06;100.00;57755.88;5015934;28;20206;-65
2021/01/05 02:51:37;;;;;;;0.60;0.60;;;2.40;99.90;;;3.01;100.00;57426.47;5003080;28;20190;-64
2021/01/05 02:55:32;;;;;;;0.60;0.60;;;2.40;99.90;;;2.96;100.00;57420.84;5004496;28;20257;-64
2021/01/05 02:58:56;;;;;;;0.70;0.60;;;2.40;99.90;;;3.01;100.00;58075.00;4974372;28;20235;-64
2021/01/05 03:02:41;;;;;;;3.67;1.45;;;2.40;99.90;;;3.05;100.00;58402.97;4974141;28;20328;-63
2021/01/05 03:05:27;;;;;;;0.77;0.75;;;2.40;99.90;;;2.99;100.00;57748.69;4995701;28;20314;-65
2021/01/05 03:08:12;;;;;;;0.60;0.50;;;2.40;99.90;;;3.01;100.00;57750.22;5003015;28;20213;-65
2021/01/05 03:11:05;;;;;;;0.68;0.55;;;2.40;99.90;;;3.06;100.00;58080.19;5014507;28;20254;-64
2021/01/05 03:13:56;;;;;;;0.60;0.50;;;2.40;99.90;;;3.13;100.00;58086.91;5008857;28;20706;-64
2021/01/05 03:16:51;;;;;;;0.60;0.50;;;2.50;99.90;;;3.01;100.00;57425.94;5013707;28;20252;-64
2021/01/05 03:19:46;;;;;;;0.60;0.50;;;2.40;99.90;;;2.97;100.00;57421.88;5006993;28;20199;-64
2021/01/05 03:22:36;;;;;;;0.60;0.60;;;2.40;99.90;;;2.94;100.00;57743.00;4995752;28;20542;-64
2021/01/05 03:25:24;;;;;;;0.60;0.60;;;2.40;99.90;;;3.00;100.00;58073.47;4995587;28;20193;-64
2021/01/05 03:28:13;;;;;;;0.80;0.80;;;2.40;99.90;;;3.04;100.00;57753.28;5014855;28;20215;-64
2021/01/05 03:31:06;;;;;;;0.63;0.60;;;2.50;99.90;;;3.06;100.00;57755.38;5014545;28;20263;-64
2021/01/05 03:33:58;;;;;;;0.60;0.60;;;2.50;99.90;;;3.12;100.00;57113.44;5015020;28;20593;-65
2021/01/05 03:36:45;;;;;;;0.60;0.60;;;2.50;99.90;;;3.29;100.00;57454.59;5014630;28;20199;-64
2021/01/05 03:39:30;;;;;;;0.60;0.50;;;2.60;99.90;;;3.23;100.00;56150.75;5031168;28;20193;-64
2021/01/05 03:42:20;;;;;;;0.60;0.50;;;2.60;99.90;;;3.22;100.00;55501.38;4996009;28;20655;-64
2021/01/05 03:45:19;;;;;;;0.60;0.50;;;2.60;99.90;;;3.27;100.00;54858.47;4990179;28;20240;-66
2021/01/05 03:48:06;;;;;;;0.60;0.60;;;2.60;99.90;;;3.24;100.00;54207.38;4995069;28;20206;-64
2021/01/05 03:50:52;;;;;;;0.60;0.60;;;2.60;99.90;;;3.21;100.00;53555.97;5027474;28;20190;-64
2021/01/05 03:53:39;;;;;;;0.60;0.60;;;2.60;99.90;;;3.06;100.00;52894.81;5033448;28;20757;-65
2021/01/05 03:56:24;;;;;;;0.70;0.60;;;2.50;99.90;;;3.01;100.00;53213.91;5017119;28;20209;-65
2021/01/05 03:59:11;;;;;;;0.70;0.60;;;2.50;99.90;;;3.07;100.00;53543.03;4995704;28;20359;-63
2021/01/05 04:01:56;;;;;;;0.60;0.55;;;2.50;99.90;;;2.98;100.00;53534.41;4993738;28;20201;-64
2021/01/05 04:04:23;;;;;;;0.60;0.50;;;2.50;99.90;;;3.01;100.00;54509.03;4998517;28;20249;-64
2021/01/05 04:06:50;;;;;;;0.68;0.60;;;2.50;99.90;;;2.91;100.00;54499.78;5014782;28;20549;-65
2021/01/05 04:09:18;;;;;;;0.60;0.60;;;2.40;99.90;;;3.01;100.00;55805.13;5012547;28;20226;-65
2021/01/05 04:11:45;;;;;;;0.60;0.60;;;2.40;99.90;;;2.98;100.00;55802.13;5006716;28;20674;-64
2021/01/05 04:14:12;;;;;;;0.60;0.50;;;2.40;99.90;;;2.96;100.00;56448.34;5001476;28;20262;-64
2021/01/05 04:16:38;;;;;;;0.70;0.60;;;2.40;99.90;;;2.97;100.00;57097.66;5012778;28;20195;-64
2021/01/05 04:19:05;;;;;;;0.70;0.60;;;2.40;99.90;;;2.92;100.00;56768.44;5019296;28;20214;-64
2021/01/05 04:21:32;;;;;;;0.60;0.50;;;2.40;99.90;;;3.00;100.00;58073.97;5030261;28;20217;-64
2021/01/05 04:23:59;;;;;;;0.60;0.50;;;2.40;99.90;;;3.12;100.00;58410.25;5014427;28;20874;-64
2021/01/05 04:26:27;;;;;;;0.70;0.60;;;2.50;99.90;;;3.12;100.00;57437.22;5012325;28;20194;-65
2021/01/05 04:28:54;;;;;;;0.65;0.50;;;2.50;99.90;;;3.11;100.00;57111.91;5032934;28;20218;-64
2021/01/05 04:31:21;;;;;;;0.60;0.50;;;2.60;99.90;;;3.20;100.00;56796.75;5021958;28;20187;-65
2021/01/05 04:33:48;;;;;;;0.63;0.60;;;2.60;99.90;;;3.23;100.00;56150.75;5012346;28;20199;-65
2021/01/05 04:36:14;;;;;;;0.63;0.55;;;2.60;99.90;;;3.10;100.00;55165.88;5012952;28;20195;-64
2021/01/05 04:38:41;;;;;;;0.60;0.60;;;2.60;99.90;;;3.10;100.00;54841.84;5020212;28;20887;-65
2021/01/05 04:41:17;;;;;;;0.60;0.50;;;2.60;99.90;;;3.19;100.00;54850.63;5013169;28;20495;-65
2021/01/05 04:43:51;;;;;;;0.60;0.60;;;2.60;99.90;;;3.12;100.00;54195.72;5013455;28;20226;-65
2021/01/05 04:47:01;;;;;;;1.05;1.02;;;2.60;99.90;;;3.07;100.00;54190.91;4999388;28;20609;-66
2021/01/05 04:50:03;;;;;;;0.60;0.50;;;2.60;99.90;;;3.12;100.00;54196.22;5004155;28;20226;-64
2021/01/05 04:52:38;;;;;;;0.60;0.60;;;2.60;99.90;;;2.90;100.00;53851.53;5010811;28;20190;-64
2021/01/05 04:55:16;;;;;;;0.60;0.60;;;2.50;99.90;;;3.07;100.00;55487.50;5028132;28;20237;-64
2021/01/05 04:57:47;;;;;;;0.70;0.60;;;2.50;99.90;;;3.01;100.00;55481.56;5028833;28;20279;-64
2021/01/05 05:00:23;;;;;;;0.60;0.50;;;2.50;99.90;;;3.05;100.00;55809.09;4998064;28;20211;-65
2021/01/05 05:03:03;;;;;;;0.60;0.50;;;2.50;99.90;;;3.04;100.00;56780.56;4993436;28;20179;-65
2021/01/05 05:06:06;;;;;;;0.70;0.60;;;2.50;99.90;;;3.07;100.00;57108.34;5007002;28;20192;-64
2021/01/05 05:08:58;;;;;;;0.60;0.60;;;2.50;99.90;;;3.02;100.00;57103.25;5024786;28;20237;-65
2021/01/05 05:11:33;;;;;;;0.60;0.60;;;2.50;99.90;;;3.00;100.00;58073.97;5022665;28;20218;-64
2021/01/05 05:14:06;;;;;;;0.70;0.60;;;2.50;99.90;;;3.04;100.00;58401.94;5000616;28;20230;-64
2021/01/05 05:16:59;;;;;;;0.60;0.50;;;2.50;99.90;;;3.09;100.00;58731.53;5007348;28;20590;-64
2021/01/05 05:19:55;;;;;;;0.60;0.50;;;2.50;99.90;;;3.07;100.00;58405.06;5010877;28;20214;-65
2021/01/05 05:22:38;;;;;;;0.60;0.60;;;2.50;99.90;;;3.05;100.00;58727.88;5011740;28;20187;-64
2021/01/05 05:25:14;;;;;;;0.60;0.60;;;2.50;99.90;;;3.20;100.00;59066.97;5013554;28;20180;-64
2021/01/05 05:27:49;;;;;;;0.60;0.60;;;2.60;99.90;;;3.22;100.00;58420.13;5012028;28;20210;-64
2021/01/05 05:30:26;;;;;;;0.60;0.60;;;2.60;99.90;;;3.17;100.00;57766.69;5013051;28;20218;-64
2021/01/05 05:32:58;;;;;;;0.60;0.60;;;2.60;99.90;;;3.13;100.00;57438.75;4993135;28;20595;-64
2021/01/05 05:35:55;;;;;;;0.60;0.60;;;2.60;99.90;;;3.06;100.00;57431.09;5010537;28;20215;-65
2021/01/05 05:38:51;;;;;;;0.60;0.50;;;2.60;99.90;;;3.17;100.00;58739.91;5013279;28;20263;-64
2021/01/05 05:41:31;;;;;;;0.60;0.50;;;2.60;99.90;;;3.26;100.00;59073.28;5028199;28;20199;-64
2021/01/05 05:44:27;;;;;;;0.60;0.50;;;2.60;99.90;;;3.15;100.00;58737.81;5012460;28;20230;-64
2021/01/05 05:47:03;;;;;;;0.70;0.60;;;2.60;99.90;;;3.23;100.00;59395.19;5012655;28;20214;-63
2021/01/05 05:49:47;;;;;;;0.70;0.60;;;2.60;99.90;;;3.17;100.00;59063.81;5015293;28;20602;-65
2021/01/05 05:52:28;;;;;;;0.60;0.50;;;2.70;99.90;;;3.25;100.00;59721.34;5021860;28;20214;-65
2021/01/05 05:54:57;;;;;;;0.60;0.60;;;2.70;99.90;;;3.34;100.00;60055.56;5036597;28;20200;-66
2021/01/05 05:57:38;;;;;;;0.60;0.50;;;2.70;99.90;;;3.38;100.00;59735.16;5027685;28;20706;-66
2021/01/05 06:00:21;;;;;;;0.60;0.60;;;2.80;99.90;;;3.29;100.00;58751.91;5016511;28;20717;-66
2021/01/05 06:02:48;;;;;;;0.60;0.60;;;2.80;99.90;;;3.39;100.00;59736.75;4998223;28;20234;-66
2021/01/05 06:05:25;;;;;;;0.60;0.50;;;2.80;99.90;;;3.46;100.00;59743.09;4997510;28;20250;-65
2021/01/05 06:07:53;;;;;;;0.60;0.50;;;2.80;99.90;;;3.33;100.00;59729.84;5026322;28;20198;-64
2021/01/05 06:10:20;;;;;;;7.03;2.17;;;2.80;99.90;;;3.29;100.00;60375.41;5014301;28;20643;-66
2021/01/05 06:12:47;;;;;;;0.70;0.60;;;2.80;99.90;;;3.24;100.00;60694.72;4996140;28;20215;-64
2021/01/05 06:15:15;;;;;;;0.63;0.60;;;2.70;99.90;;;3.26;100.00;61345.75;5012465;28;20761;-65
2021/01/05 06:17:42;;;;;;;0.60;0.60;;;2.70;99.90;;;3.25;100.00;61669.44;5016112;28;20274;-65
2021/01/05 06:20:11;;;;;;;0.70;0.60;;;2.70;99.90;;;3.23;100.00;62317.38;5015813;28;20283;-65
2021/01/05 06:22:38;;;;;;;0.70;0.60;;;2.70;99.90;;;3.19;100.00;62637.78;4995859;28;20682;-65
2021/01/05 06:25:07;;;;;;;0.60;0.60;;;2.70;99.90;;;3.36;100.00;63631.59;5010578;28;20723;-64
2021/01/05 06:27:34;;;;;;;0.70;0.60;;;2.70;99.90;;;3.28;100.00;63622.59;5015428;28;20262;-64
2021/01/05 06:30:01;;;;;;;0.70;0.60;;;2.70;99.90;;;3.26;100.00;64595.38;5014266;28;20631;-64
2021/01/05 06:32:28;;;;;;;0.65;0.60;;;2.60;99.90;;;3.26;100.00;64920.44;5016569;28;20187;-65
2021/01/05 06:34:55;;;;;;;0.60;0.60;;;2.60;99.90;;;3.20;100.00;64913.53;5014727;28;20642;-64
2021/01/05 06:37:22;;;;;;;0.60;0.50;;;2.60;99.90;;;3.17;100.00;66209.91;5013626;28;20195;-65
2021/01/05 06:39:50;;;;;;;0.60;0.60;;;2.60;99.90;;;3.10;100.00;66527.47;5016888;28;20269;-64
2021/01/05 06:42:17;;;;;;;0.60;0.50;;;2.60;99.90;;;3.13;100.00;67831.94;5012317;28;20199;-64
2021/01/05 06:44:45;;;;;;;0.60;0.60;;;2.60;99.90;;;3.17;100.00;68812.84;5015478;28;20309;-64
2021/01/05 06:47:13;;;;;;;0.60;0.60;;;2.60;99.90;;;3.15;100.00;68810.41;5014196;28;20218;-64
2021/01/05 06:49:41;;;;;;;0.80;0.80;;;2.60;99.90;;;3.17;100.00;69463.09;5016848;28;20663;-66
2021/01/05 06:52:08;;;;;;;0.60;0.50;;;2.50;99.90;;;3.11;100.00;69782.44;5013363;28;20186;-64
2021/01/05 06:54:35;;;;;;;0.70;0.60;;;2.50;99.90;;;3.28;100.00;70779.63;5019327;28;20209;-64
2021/01/05 06:57:04;;;;;;;0.70;0.60;;;2.60;99.90;;;3.29;100.00;70129.59;5000742;28;20192;-68
2021/01/05 06:59:31;;;;;;;0.60;0.60;;;2.60;99.90;;;3.36;100.00;70463.91;5003968;28;20695;-65
2021/01/05 07:02:01;;;;;;;0.77;0.77;;;2.60;99.90;;;3.28;100.00;70453.34;5000313;28;20251;-64
2021/01/05 07:04:28;;;;;;;0.70;0.60;;;2.60;99.90;;;3.27;100.00;70778.34;5014791;28;20279;-65
2021/01/05 07:06:57;;;;;;;0.70;0.60;;;2.60;99.90;;;3.25;100.00;70775.88;5014878;28;20233;-65
2021/01/05 07:09:28;;;;;;;1.05;0.70;;;2.60;99.90;;;3.22;100.00;71097.13;5015063;28;20223;-64
2021/01/05 07:11:56;;;;;;;1.02;0.93;;;2.60;99.90;;;3.22;100.00;71423.44;5001941;28;20219;-68
2021/01/05 07:14:26;;;;;;;0.68;0.60;;;2.60;99.90;;;3.23;100.00;72075.50;5028345;28;20223;-65
2021/01/05 07:16:53;;;;;;;0.70;0.60;;;2.60;99.90;;;3.28;100.00;73060.00;5012463;28;20230;-64
2021/01/05 07:19:20;;;;;;;0.70;0.60;;;2.60;99.90;;;3.23;100.00;72727.72;5004063;28;20186;-65
2021/01/05 07:21:47;;;;;;;0.70;0.60;;;2.60;99.90;;;3.28;100.00;73385.91;5013881;28;20215;-66
2021/01/05 07:24:15;;;;;;;0.60;0.50;;;2.70;99.90;;;3.32;100.00;73391.06;4997566;28;20282;-65
2021/01/05 07:26:46;;;;;;;0.70;0.60;;;2.70;99.90;;;3.42;100.00;73728.66;5012297;28;20195;-65
2021/01/05 07:29:15;;;;;;;0.60;0.50;;;2.70;99.90;;;3.39;100.00;73726.09;5007306;28;20243;-66
2021/01/05 07:31:43;;;;;;;0.60;0.50;;;2.70;99.90;;;3.38;100.00;73724.78;5013388;28;20438;-64
2021/01/05 07:34:11;;;;;;;0.70;0.60;;;2.70;99.90;;;3.39;100.00;73726.09;5011000;28;20262;-65
2021/01/05 07:36:42;;;;;;;0.60;0.50;;;2.70;99.90;;;3.51;100.00;74067.09;5015421;28;20195;-65
2021/01/05 07:39:21;;;;;;;0.70;0.60;;;2.70;99.90;;;3.51;100.00;73088.31;5016438;28;20221;-64
2021/01/05 07:41:50;;;;;;;0.70;0.60;;;2.80;99.90;;;3.48;100.00;72432.53;5004301;28;20203;-65
2021/01/05 07:44:17;;;;;;;0.70;0.60;;;2.80;99.90;;;3.47;100.00;72105.38;5013241;28;20230;-64
2021/01/05 07:46:45;;;;;;;0.63;0.60;;;2.80;99.90;;;3.47;100.00;72757.19;5016945;28;20209;-64
2021/01/05 07:49:13;;;;;;;0.60;0.60;;;2.80;99.90;;;3.51;100.00;73088.94;5013922;28;20195;-65
2021/01/05 07:51:46;;;;;;;0.60;0.60;;;2.80;99.90;;;3.46;100.00;73081.84;5007946;28;20688;-64
2021/01/05 07:54:13;;;;;;;0.60;0.50;;;2.80;99.90;;;3.40;100.00;73074.78;5012379;28;20280;-65
2021/01/05 07:56:44;;;;;;;0.70;0.60;;;2.80;99.90;;;3.52;100.00;73742.31;5009931;28;20187;-66
2021/01/05 07:59:11;;;;;;;0.60;0.50;;;2.80;99.90;;;3.64;100.00;74083.38;5011273;28;20575;-64
2021/01/05 08:01:38;;;;;;;0.70;0.60;;;2.90;99.90;;;3.66;100.00;73107.59;5013751;28;20191;-64
2021/01/05 08:04:06;;;;;;;0.60;0.50;;;2.90;99.90;;;3.62;100.00;72776.41;5005171;28;20222;-66
2021/01/05 08:06:33;;;;;;;0.68;0.60;;;2.90;99.90;;;3.60;100.00;72774.47;5013970;28;20178;-64
2021/01/05 08:09:00;;;;;;;0.60;0.60;;;2.90;99.90;;;3.82;100.00;74106.19;5031152;28;20232;-65
2021/01/05 08:11:36;;;;;;;0.60;0.60;;;2.90;99.90;;;3.76;100.00;72794.38;5020274;28;20184;-65
2021/01/05 08:14:03;;;;;;;0.60;0.60;;;2.90;99.90;;;3.67;100.00;72782.81;5001679;28;20305;-65
2021/01/05 08:16:30;;;;;;;0.70;0.68;;;3.00;99.90;;;3.75;100.00;73119.19;5011843;28;20183;-65
2021/01/05 08:18:57;;;;;;;0.60;0.60;;;3.00;99.90;;;3.74;100.00;72139.66;4993768;28;20223;-64
2021/01/05 08:21:26;;;;;;;0.70;0.60;;;3.10;99.90;;;3.72;100.00;72463.16;5011300;28;20183;-65
2021/01/05 08:23:54;;;;;;;0.70;0.60;;;3.10;99.90;;;3.88;100.00;73135.94;5019184;28;20853;-65
2021/01/05 08:26:22;;;;;;;0.70;0.60;;;3.10;99.90;;;3.91;100.00;72812.94;5011537;28;20187;-66
2021/01/05 08:28:49;;;;;;;0.70;0.60;;;3.20;99.90;;;3.87;100.00;72482.31;5013131;28;20682;-65
2021/01/05 08:31:16;;;;;;;0.70;0.60;;;3.20;99.90;;;3.87;100.00;72156.19;5000790;28;20211;-67
2021/01/05 08:33:43;;;;;;;0.70;0.60;;;3.20;99.90;;;4.00;100.00;73802.69;4995504;28;20526;-64
2021/01/05 08:36:10;;;;;;;0.70;0.60;;;3.20;99.90;;;4.05;100.00;73482.81;5000414;28;20895;-64
2021/01/05 08:38:38;;;;;;;0.60;0.55;;;3.20;99.90;;;4.12;100.00;72839.22;5020509;28;20174;-64
2021/01/05 08:41:05;;;;;;;0.60;0.52;;;3.20;99.90;;;3.99;100.00;72170.19;5028422;28;20209;-64
2021/01/05 08:43:32;;;;;;;0.70;0.60;;;3.20;99.90;;;3.94;100.00;73468.59;5012622;28;20226;-65
2021/01/05 08:46:00;;;;;;;0.60;0.60;;;3.20;99.90;;;3.85;100.00;74437.06;5010663;28;20227;-64
2021/01/05 08:48:26;;;;;;;0.70;0.60;;;3.20;99.90;;;3.87;100.00;76398.19;5010917;28;20523;-65
2021/01/05 08:50:53;;;;;;;0.70;0.70;;;3.20;99.90;;;3.83;100.00;75739.25;5011320;28;20480;-64
2021/01/05 08:53:22;;;;;;;0.70;0.60;;;3.20;99.90;;;3.90;100.00;75422.09;5011834;28;20445;-65
2021/01/05 08:55:50;;;;;;;2.78;1.40;;;3.20;99.90;;;3.95;100.00;76734.13;5004696;28;20454;-65
2021/01/05 08:58:17;;;;;;;0.60;0.60;;;3.30;99.90;;;3.93;100.00;78691.38;5011953;28;20191;-65
2021/01/05 09:00:44;;;;;;;0.60;0.60;;;3.30;99.90;;;4.04;100.00;77399.56;5000492;28;20423;-64
2021/01/05 09:03:11;;;;;;;0.60;0.53;;;3.30;99.90;;;4.10;100.00;75447.97;5010016;28;20187;-65
2021/01/05 09:05:45;;;;;;;0.70;0.57;;;3.30;99.90;;;4.02;100.00;75763.88;4998235;28;20435;-64
2021/01/05 09:08:14;;;;;;;1.58;0.80;;;3.30;99.90;;;4.15;100.00;76107.78;5001469;28;20990;-64
2021/01/05 09:10:41;;;;;;;0.70;0.60;;;3.30;99.90;;;3.99;100.00;76740.19;5013350;28;20195;-65
2021/01/05 09:13:09;;;;;;;0.63;0.57;;;3.30;99.90;;;4.09;100.00;78060.56;5013048;28;20198;-65
2021/01/05 09:15:36;;;;;;;0.70;0.60;;;3.30;99.90;;;4.19;100.00;77746.75;5009314;28;20200;-64
2021/01/05 09:18:03;;;;;;;0.60;0.52;;;3.30;99.90;;;4.25;100.00;76774.59;5007030;28;20656;-65
2021/01/05 09:20:30;;;;;;;0.70;0.60;;;3.30;99.90;;;4.23;100.00;75465.19;5009794;28;20229;-64
2021/01/05 09:22:57;;;;;;;1.03;0.97;;;3.30;99.90;;;4.38;100.00;76463.97;5009346;28;20846;-65
2021/01/05 09:25:24;;;;;;;0.67;0.50;;;3.30;99.90;;;4.38;100.00;76464.63;5019486;28;20424;-70
2021/01/05 09:27:52;;;;;;;0.70;0.60;;;3.30;99.90;;;4.44;100.00;75818.47;5023481;28;20445;-71
2021/01/05 09:30:21;;;;;;;0.60;0.60;;;3.30;99.90;;;4.32;100.00;76457.25;5014679;28;20488;-69
2021/01/05 09:32:49;;;;;;;0.70;0.60;;;3.30;99.90;;;4.13;100.00;78392.19;5013592;28;20443;-69
2021/01/05 09:35:17;;;;;;;0.60;0.50;;;3.30;99.90;;;4.39;100.00;81043.34;5005512;28;20438;-68
2021/01/05 09:37:47;;;;;;;0.70;0.60;;;3.30;99.90;;;4.31;100.00;79070.19;5014597;28;20441;-69
2021/01/05 09:40:16;;;;;;;1.07;0.97;;;3.30;99.90;;;4.47;100.00;80400.25;5016399;28;21012;-68
2021/01/05 09:42:44;;;;;;;0.60;0.50;;;3.30;99.90;;;4.48;100.00;79420.88;5012551;28;20535;-69
2021/01/05 09:45:12;;;;;;;0.70;0.60;;;3.30;99.90;;;4.37;100.00;77770.66;5016606;28;20480;-70
2021/01/05 09:47:40;;;;;;;0.60;0.60;;;3.40;99.90;;;4.21;100.00;81019.19;5016049;28;20410;-70
2021/01/05 09:50:09;;;;;;;2.17;2.07;;;3.40;99.90;;;4.24;100.00;82986.88;5012801;28;20556;-69
2021/01/05 09:52:36;;;;;;;0.60;0.50;;;3.40;99.90;;;4.25;100.00;84624.66;5012991;28;20465;-69
2021/01/05 09:55:06;;;;;;;0.70;0.60;;;3.50;99.90;;;4.27;100.00;86265.47;5013561;28;20456;-69
2021/01/05 09:57:33;;;;;;;0.70;0.53;;;3.50;99.90;;;4.44;100.00;86290.41;5035160;28;20449;-70
2021/01/05 10:00:00;;;;;;;0.70;0.60;;;3.50;99.90;;;4.42;100.00;86287.38;5014982;28;20468;-69
2021/01/05 10:02:30;;;;;;;0.70;0.60;;;3.50;99.90;;;4.36;100.00;83003.59;5016539;28;20405;-69
2021/01/05 10:04:58;;;;;;;0.70;0.60;;;3.50;99.90;;;4.45;100.00;85636.47;5006775;28;20437;-70
2021/01/05 10:07:26;;;;;;;2.65;1.55;;;3.50;99.90;;;4.52;100.00;86630.28;5015139;28;20494;-70
2021/01/05 10:09:54;;;;;;;0.60;0.60;;;3.50;99.90;;;4.63;100.00;85991.25;5021649;28;20194;-71
2021/01/05 10:12:21;;;;;;;1.53;1.43;;;3.50;99.90;;;4.47;100.00;85639.47;5035153;28;20413;-71
2021/01/05 10:14:48;;;;;;;0.60;0.60;;;3.50;99.90;;;4.58;100.00;86639.38;5016244;28;20867;-71
2021/01/05 10:17:15;;;;;;;0.60;0.57;;;3.50;99.90;;;4.45;100.00;87275.28;5014574;28;20433;-71
2021/01/05 10:19:42;;;;;;;0.60;0.60;;;3.60;99.90;;;4.56;100.00;87947.97;5016117;28;20513;-69
2021/01/05 10:22:10;;;;;;;0.67;0.50;;;3.50;99.90;;;4.67;100.00;88621.00;5018610;28;20433;-70
2021/01/05 10:24:36;;;;;;;0.60;0.50;;;3.60;99.90;;;4.65;100.00;86977.16;5029158;28;21526;-69
2021/01/05 10:27:04;;;;;;;0.93;0.93;;;3.50;99.90;;;4.61;100.00;86643.94;5013544;28;20441;-69
2021/01/05 10:29:31;;;;;;;0.60;0.60;;;3.60;99.90;;;4.51;100.00;88597.00;5015038;28;20203;-69
2021/01/05 10:31:58;;;;;;;0.70;0.60;;;3.60;99.90;;;4.75;100.00;88632.59;5001379;28;20574;-70
2021/01/05 10:34:25;;;;;;;0.70;0.60;;;3.60;99.90;;;4.47;100.00;92528.03;4996182;28;20419;-70
2021/01/05 10:36:53;;;;;;;0.70;0.60;;;3.60;99.90;;;4.52;100.00;93522.19;5008227;28;20445;-71
2021/01/05 10:39:23;;;;;;;0.60;0.60;;;3.60;99.90;;;4.44;100.00;94494.59;5026309;28;20780;-70
2021/01/05 10:41:50;;;;;;;0.60;0.50;;;3.60;99.90;;;4.46;100.00;95154.22;5015319;28;20992;-69
2021/01/05 10:44:20;;;;;;;0.70;0.60;;;3.60;99.90;;;4.63;100.00;97155.13;5018620;28;21020;-70
2021/01/05 10:46:48;;;;;;;0.70;0.60;;;3.70;99.90;;;4.77;100.00;97835.97;5014016;28;20937;-69
2021/01/05 10:49:16;;;;;;;0.70;0.70;;;3.70;99.90;;;4.70;100.00;98482.91;5015376;28;20478;-68
2021/01/05 10:51:47;;;;;;;0.60;0.60;;;3.70;99.90;;;4.65;100.00;98145.34;5012634;28;20929;-69
2021/01/05 10:54:16;;;;;;;0.90;0.90;;;3.70;99.90;;;4.71;100.00;97167.81;5014838;28;20433;-69
2021/01/05 10:56:45;;;;;;;0.60;0.50;;;3.70;99.90;;;4.82;100.00;97844.50;5011805;28;20438;-70